Cardigan, United Kingdom
Current Conditions -  °F | °C
As of 2:50 AM on Thursday 27 Nov 2014 (Local Time) from EGOP Reporting Station
Overcast Overcast  
Wind Chill: 32°   Ceiling: 4900
Heat Index: 36°   Visibility: 0.34mi
Dew Point: 36°   Wind: 5mph
Humidity: 100%   Direction: 70°ENE
Pressure: 29.68"   Gusts: NA
Location:  52.09°N, 4.66°W
Report Text: EGOP 270250Z AUTO 07004KT 0550 // FEW001/// OVC049/// 02/02 Q1005
Loading
Personal Weather Stations






























Interactive Weather Map New forecast layout! Learn more

10-Day Weather Forecast

Advertisements
Track Severe Weather on mobile